<?xml version="1.0" encoding="UTF-8" standalone="no" ?>
<gpx xmlns="http://www.topografix.com/GPX/1/1" xmlns:xsi="http://www.w3.org/2001/XMLSchema-instance" xsi:schemaLocation="http://www.topografix.com/GPX/1/1 http://www.topografix.com/GPX/1/1/gpx.xsd" version="1.1" creator="VisuGPX - https://www.visugpx.com">
  <metadata>
    <name>Raid VTT IFV 2022 de l'enfer</name>
    <desc><![CDATA[Tracé du raid avec le découpage en segments de guidage individuels avec thème d'animation imposé]]></desc>
  </metadata>
  <trk>
    <name><![CDATA[J1 - RUN 2]]></name>
    <desc><![CDATA[Patrimoine/Géologie : Le Verdon]]></desc>
    <extensions>
      <line xmlns="http://www.topografix.com/GPX/gpx_style/0/2">
        <color>00FF00</color>
        <width>4</width>
          <extensions>
            <sens>1</sens>
          </extensions>
      </line>
    </extensions>
    <trkseg>
      <trkpt lat="44.1426" lon="6.59608">
        <ele>1158</ele>
        <time>2021-11-16T02:18:35Z</time>
      </trkpt>
      <trkpt lat="44.14218" lon="6.59585">
        <ele>1155</ele>
        <time>2021-11-16T02:18:46Z</time>
      </trkpt>
      <trkpt lat="44.14099" lon="6.59548">
        <ele>1155</ele>
        <time>2021-11-16T02:19:14Z</time>
      </trkpt>
      <trkpt lat="44.14068" lon="6.59545">
        <ele>1156</ele>
        <time>2021-11-16T02:19:21Z</time>
      </trkpt>
      <trkpt lat="44.13962" lon="6.59544">
        <ele>1161</ele>
        <time>2021-11-16T02:19:46Z</time>
      </trkpt>
      <trkpt lat="44.13943" lon="6.5954">
        <ele>1162</ele>
        <time>2021-11-16T02:19:51Z</time>
      </trkpt>
      <trkpt lat="44.13897" lon="6.5954">
        <ele>1168</ele>
        <time>2021-11-16T02:20:01Z</time>
      </trkpt>
      <trkpt lat="44.1387" lon="6.59529">
        <ele>1170</ele>
        <time>2021-11-16T02:20:08Z</time>
      </trkpt>
      <trkpt lat="44.13845" lon="6.59501">
        <ele>1166</ele>
        <time>2021-11-16T02:20:15Z</time>
      </trkpt>
      <trkpt lat="44.13816" lon="6.59479">
        <ele>1165</ele>
        <time>2021-11-16T02:20:23Z</time>
      </trkpt>
      <trkpt lat="44.13788" lon="6.59453">
        <ele>1163</ele>
        <time>2021-11-16T02:20:31Z</time>
      </trkpt>
      <trkpt lat="44.13761" lon="6.59433">
        <ele>1162</ele>
        <time>2021-11-16T02:20:38Z</time>
      </trkpt>
      <trkpt lat="44.13726" lon="6.59412">
        <ele>1164</ele>
        <time>2021-11-16T02:20:47Z</time>
      </trkpt>
      <trkpt lat="44.13663" lon="6.59365">
        <ele>1169</ele>
        <time>2021-11-16T02:21:04Z</time>
      </trkpt>
      <trkpt lat="44.13657" lon="6.59353">
        <ele>1168</ele>
        <time>2021-11-16T02:21:06Z</time>
      </trkpt>
      <trkpt lat="44.1366" lon="6.59335">
        <ele>1164</ele>
        <time>2021-11-16T02:21:09Z</time>
      </trkpt>
      <trkpt lat="44.1365" lon="6.59335">
        <ele>1166</ele>
        <time>2021-11-16T02:21:11Z</time>
      </trkpt>
      <trkpt lat="44.13648" lon="6.59337">
        <ele>1167</ele>
        <time>2021-11-16T02:21:12Z</time>
      </trkpt>
      <trkpt lat="44.13633" lon="6.59319">
        <ele>1167</ele>
        <time>2021-11-16T02:21:17Z</time>
      </trkpt>
      <trkpt lat="44.13621" lon="6.59313">
        <ele>1168</ele>
        <time>2021-11-16T02:21:20Z</time>
      </trkpt>
      <trkpt lat="44.1361" lon="6.59298">
        <ele>1167</ele>
        <time>2021-11-16T02:21:23Z</time>
      </trkpt>
      <trkpt lat="44.13585" lon="6.59246">
        <ele>1159</ele>
        <time>2021-11-16T02:21:34Z</time>
      </trkpt>
      <trkpt lat="44.13577" lon="6.59239">
        <ele>1158</ele>
        <time>2021-11-16T02:21:36Z</time>
      </trkpt>
      <trkpt lat="44.13557" lon="6.59228">
        <ele>1159</ele>
        <time>2021-11-16T02:21:41Z</time>
      </trkpt>
      <trkpt lat="44.13551" lon="6.59216">
        <ele>1157</ele>
        <time>2021-11-16T02:21:43Z</time>
      </trkpt>
      <trkpt lat="44.13541" lon="6.59206">
        <ele>1155</ele>
        <time>2021-11-16T02:21:46Z</time>
      </trkpt>
      <trkpt lat="44.13507" lon="6.59182">
        <ele>1154</ele>
        <time>2021-11-16T02:21:55Z</time>
      </trkpt>
      <trkpt lat="44.13439" lon="6.59177">
        <ele>1155</ele>
        <time>2021-11-16T02:22:11Z</time>
      </trkpt>
      <trkpt lat="44.13423" lon="6.59172">
        <ele>1154</ele>
        <time>2021-11-16T02:22:15Z</time>
      </trkpt>
      <trkpt lat="44.13417" lon="6.59167">
        <ele>1153</ele>
        <time>2021-11-16T02:22:17Z</time>
      </trkpt>
      <trkpt lat="44.13395" lon="6.59164">
        <ele>1154</ele>
        <time>2021-11-16T02:22:22Z</time>
      </trkpt>
      <trkpt lat="44.13376" lon="6.59169">
        <ele>1156</ele>
        <time>2021-11-16T02:22:26Z</time>
      </trkpt>
      <trkpt lat="44.13275" lon="6.59164">
        <ele>1158</ele>
        <time>2021-11-16T02:22:50Z</time>
      </trkpt>
      <trkpt lat="44.13235" lon="6.59179">
        <ele>1160</ele>
        <time>2021-11-16T02:23:00Z</time>
      </trkpt>
      <trkpt lat="44.13197" lon="6.59197">
        <ele>1163</ele>
        <time>2021-11-16T02:23:09Z</time>
      </trkpt>
      <trkpt lat="44.13146" lon="6.59237">
        <ele>1167</ele>
        <time>2021-11-16T02:23:23Z</time>
      </trkpt>
      <trkpt lat="44.13132" lon="6.59239">
        <ele>1168</ele>
        <time>2021-11-16T02:23:26Z</time>
      </trkpt>
      <trkpt lat="44.13117" lon="6.59237">
        <ele>1169</ele>
        <time>2021-11-16T02:23:29Z</time>
      </trkpt>
      <trkpt lat="44.13101" lon="6.59238">
        <ele>1171</ele>
        <time>2021-11-16T02:23:33Z</time>
      </trkpt>
      <trkpt lat="44.13073" lon="6.59246">
        <ele>1173</ele>
        <time>2021-11-16T02:23:40Z</time>
      </trkpt>
      <trkpt lat="44.13043" lon="6.59249">
        <ele>1175</ele>
        <time>2021-11-16T02:23:47Z</time>
      </trkpt>
      <trkpt lat="44.13019" lon="6.59243">
        <ele>1176</ele>
        <time>2021-11-16T02:23:52Z</time>
      </trkpt>
      <trkpt lat="44.12997" lon="6.59232">
        <ele>1177</ele>
        <time>2021-11-16T02:23:58Z</time>
      </trkpt>
      <trkpt lat="44.1299" lon="6.59222">
        <ele>1176</ele>
        <time>2021-11-16T02:24:00Z</time>
      </trkpt>
      <trkpt lat="44.12957" lon="6.59199">
        <ele>1173</ele>
        <time>2021-11-16T02:24:09Z</time>
      </trkpt>
      <trkpt lat="44.12953" lon="6.59192">
        <ele>1172</ele>
        <time>2021-11-16T02:24:10Z</time>
      </trkpt>
      <trkpt lat="44.12953" lon="6.59169">
        <ele>1170</ele>
        <time>2021-11-16T02:24:14Z</time>
      </trkpt>
      <trkpt lat="44.12948" lon="6.59168">
        <ele>1170</ele>
        <time>2021-11-16T02:24:15Z</time>
      </trkpt>
      <trkpt lat="44.12938" lon="6.5919">
        <ele>1171</ele>
        <time>2021-11-16T02:24:20Z</time>
      </trkpt>
      <trkpt lat="44.12912" lon="6.59226">
        <ele>1174</ele>
        <time>2021-11-16T02:24:28Z</time>
      </trkpt>
      <trkpt lat="44.12882" lon="6.59262">
        <ele>1177</ele>
        <time>2021-11-16T02:24:38Z</time>
      </trkpt>
      <trkpt lat="44.12866" lon="6.59264">
        <ele>1177</ele>
        <time>2021-11-16T02:24:41Z</time>
      </trkpt>
      <trkpt lat="44.12859" lon="6.59247">
        <ele>1176</ele>
        <time>2021-11-16T02:24:45Z</time>
      </trkpt>
      <trkpt lat="44.12855" lon="6.59228">
        <ele>1175</ele>
        <time>2021-11-16T02:24:48Z</time>
      </trkpt>
      <trkpt lat="44.12854" lon="6.59208">
        <ele>1173</ele>
        <time>2021-11-16T02:24:51Z</time>
      </trkpt>
      <trkpt lat="44.12872" lon="6.59141">
        <ele>1170</ele>
        <time>2021-11-16T02:25:03Z</time>
      </trkpt>
      <trkpt lat="44.12892" lon="6.59124">
        <ele>1168</ele>
        <time>2021-11-16T02:25:09Z</time>
      </trkpt>
      <trkpt lat="44.12905" lon="6.59106">
        <ele>1167</ele>
        <time>2021-11-16T02:25:13Z</time>
      </trkpt>
      <trkpt lat="44.12904" lon="6.59061">
        <ele>1166</ele>
        <time>2021-11-16T02:25:21Z</time>
      </trkpt>
      <trkpt lat="44.12908" lon="6.59024">
        <ele>1165</ele>
        <time>2021-11-16T02:25:27Z</time>
      </trkpt>
      <trkpt lat="44.129" lon="6.59002">
        <ele>1165</ele>
        <time>2021-11-16T02:25:31Z</time>
      </trkpt>
      <trkpt lat="44.12878" lon="6.58978">
        <ele>1166</ele>
        <time>2021-11-16T02:25:38Z</time>
      </trkpt>
      <trkpt lat="44.1287" lon="6.58962">
        <ele>1165</ele>
        <time>2021-11-16T02:25:41Z</time>
      </trkpt>
      <trkpt lat="44.12863" lon="6.5894">
        <ele>1165</ele>
        <time>2021-11-16T02:25:45Z</time>
      </trkpt>
      <trkpt lat="44.12851" lon="6.58931">
        <ele>1165</ele>
        <time>2021-11-16T02:25:48Z</time>
      </trkpt>
      <trkpt lat="44.12832" lon="6.58928">
        <ele>1166</ele>
        <time>2021-11-16T02:25:53Z</time>
      </trkpt>
      <trkpt lat="44.12791" lon="6.58915">
        <ele>1169</ele>
        <time>2021-11-16T02:26:02Z</time>
      </trkpt>
      <trkpt lat="44.12738" lon="6.58882">
        <ele>1171</ele>
        <time>2021-11-16T02:26:16Z</time>
      </trkpt>
      <trkpt lat="44.12612" lon="6.58789">
        <ele>1164</ele>
        <time>2021-11-16T02:26:49Z</time>
      </trkpt>
      <trkpt lat="44.12575" lon="6.58746">
        <ele>1160</ele>
        <time>2021-11-16T02:27:00Z</time>
      </trkpt>
      <trkpt lat="44.12522" lon="6.58693">
        <ele>1161</ele>
        <time>2021-11-16T02:27:16Z</time>
      </trkpt>
      <trkpt lat="44.12479" lon="6.58665">
        <ele>1160</ele>
        <time>2021-11-16T02:27:27Z</time>
      </trkpt>
      <trkpt lat="44.12448" lon="6.58651">
        <ele>1159</ele>
        <time>2021-11-16T02:27:34Z</time>
      </trkpt>
      <trkpt lat="44.12432" lon="6.5863">
        <ele>1157</ele>
        <time>2021-11-16T02:27:40Z</time>
      </trkpt>
      <trkpt lat="44.12424" lon="6.58611">
        <ele>1154</ele>
        <time>2021-11-16T02:27:43Z</time>
      </trkpt>
      <trkpt lat="44.12404" lon="6.58587">
        <ele>1152</ele>
        <time>2021-11-16T02:27:49Z</time>
      </trkpt>
      <trkpt lat="44.12396" lon="6.58584">
        <ele>1152</ele>
        <time>2021-11-16T02:27:51Z</time>
      </trkpt>
      <trkpt lat="44.12336" lon="6.58543">
        <ele>1149</ele>
        <time>2021-11-16T02:28:07Z</time>
      </trkpt>
      <trkpt lat="44.12324" lon="6.58517">
        <ele>1145</ele>
        <time>2021-11-16T02:28:12Z</time>
      </trkpt>
      <trkpt lat="44.12323" lon="6.58506">
        <ele>1144</ele>
        <time>2021-11-16T02:28:14Z</time>
      </trkpt>
      <trkpt lat="44.12316" lon="6.58486">
        <ele>1140</ele>
        <time>2021-11-16T02:28:18Z</time>
      </trkpt>
      <trkpt lat="44.12295" lon="6.58465">
        <ele>1137</ele>
        <time>2021-11-16T02:28:24Z</time>
      </trkpt>
      <trkpt lat="44.12243" lon="6.58449">
        <ele>1136</ele>
        <time>2021-11-16T02:28:36Z</time>
      </trkpt>
      <trkpt lat="44.12216" lon="6.58447">
        <ele>1135</ele>
        <time>2021-11-16T02:28:42Z</time>
      </trkpt>
      <trkpt lat="44.12177" lon="6.5844">
        <ele>1132</ele>
        <time>2021-11-16T02:28:52Z</time>
      </trkpt>
      <trkpt lat="44.1215" lon="6.58455">
        <ele>1134</ele>
        <time>2021-11-16T02:28:58Z</time>
      </trkpt>
      <trkpt lat="44.12136" lon="6.58476">
        <ele>1138</ele>
        <time>2021-11-16T02:29:03Z</time>
      </trkpt>
      <trkpt lat="44.12116" lon="6.5849">
        <ele>1141</ele>
        <time>2021-11-16T02:29:08Z</time>
      </trkpt>
      <trkpt lat="44.12106" lon="6.58476">
        <ele>1138</ele>
        <time>2021-11-16T02:29:12Z</time>
      </trkpt>
      <trkpt lat="44.12103" lon="6.58463">
        <ele>1135</ele>
        <time>2021-11-16T02:29:14Z</time>
      </trkpt>
      <trkpt lat="44.12089" lon="6.58439">
        <ele>1129</ele>
        <time>2021-11-16T02:29:19Z</time>
      </trkpt>
      <trkpt lat="44.12064" lon="6.5844">
        <ele>1129</ele>
        <time>2021-11-16T02:29:25Z</time>
      </trkpt>
      <trkpt lat="44.12021" lon="6.58447">
        <ele>1130</ele>
        <time>2021-11-16T02:29:35Z</time>
      </trkpt>
      <trkpt lat="44.11984" lon="6.58446">
        <ele>1130</ele>
        <time>2021-11-16T02:29:44Z</time>
      </trkpt>
      <trkpt lat="44.11954" lon="6.58436">
        <ele>1129</ele>
        <time>2021-11-16T02:29:51Z</time>
      </trkpt>
      <trkpt lat="44.11869" lon="6.58394">
        <ele>1123</ele>
        <time>2021-11-16T02:30:12Z</time>
      </trkpt>
      <trkpt lat="44.1184" lon="6.58391">
        <ele>1124</ele>
        <time>2021-11-16T02:30:19Z</time>
      </trkpt>
      <trkpt lat="44.11733" lon="6.58414">
        <ele>1121</ele>
        <time>2021-11-16T02:30:44Z</time>
      </trkpt>
      <trkpt lat="44.11711" lon="6.58421">
        <ele>1122</ele>
        <time>2021-11-16T02:30:49Z</time>
      </trkpt>
      <trkpt lat="44.11685" lon="6.58419">
        <ele>1121</ele>
        <time>2021-11-16T02:30:56Z</time>
      </trkpt>
      <trkpt lat="44.11653" lon="6.58406">
        <ele>1119</ele>
        <time>2021-11-16T02:31:03Z</time>
      </trkpt>
      <trkpt lat="44.11632" lon="6.58409">
        <ele>1119</ele>
        <time>2021-11-16T02:31:08Z</time>
      </trkpt>
      <trkpt lat="44.11613" lon="6.58404">
        <ele>1119</ele>
        <time>2021-11-16T02:31:13Z</time>
      </trkpt>
      <trkpt lat="44.1158" lon="6.58372">
        <ele>1117</ele>
        <time>2021-11-16T02:31:22Z</time>
      </trkpt>
      <trkpt lat="44.11535" lon="6.58318">
        <ele>1115</ele>
        <time>2021-11-16T02:31:36Z</time>
      </trkpt>
      <trkpt lat="44.11516" lon="6.58307">
        <ele>1115</ele>
        <time>2021-11-16T02:31:41Z</time>
      </trkpt>
      <trkpt lat="44.1148" lon="6.58302">
        <ele>1116</ele>
        <time>2021-11-16T02:31:49Z</time>
      </trkpt>
      <trkpt lat="44.11452" lon="6.58314">
        <ele>1117</ele>
        <time>2021-11-16T02:31:56Z</time>
      </trkpt>
      <trkpt lat="44.1143" lon="6.58316">
        <ele>1117</ele>
        <time>2021-11-16T02:32:01Z</time>
      </trkpt>
      <trkpt lat="44.11416" lon="6.58301">
        <ele>1117</ele>
        <time>2021-11-16T02:32:05Z</time>
      </trkpt>
      <trkpt lat="44.11409" lon="6.58246">
        <ele>1113</ele>
        <time>2021-11-16T02:32:15Z</time>
      </trkpt>
      <trkpt lat="44.11369" lon="6.5817">
        <ele>1109</ele>
        <time>2021-11-16T02:32:31Z</time>
      </trkpt>
      <trkpt lat="44.11353" lon="6.58153">
        <ele>1107</ele>
        <time>2021-11-16T02:32:35Z</time>
      </trkpt>
      <trkpt lat="44.11318" lon="6.58134">
        <ele>1104</ele>
        <time>2021-11-16T02:32:44Z</time>
      </trkpt>
      <trkpt lat="44.11294" lon="6.58133">
        <ele>1103</ele>
        <time>2021-11-16T02:32:50Z</time>
      </trkpt>
      <trkpt lat="44.11267" lon="6.58124">
        <ele>1101</ele>
        <time>2021-11-16T02:32:56Z</time>
      </trkpt>
      <trkpt lat="44.11269" lon="6.58113">
        <ele>1100</ele>
        <time>2021-11-16T02:32:58Z</time>
      </trkpt>
      <trkpt lat="44.11296" lon="6.581">
        <ele>1100</ele>
        <time>2021-11-16T02:33:05Z</time>
      </trkpt>
      <trkpt lat="44.11308" lon="6.58067">
        <ele>1098</ele>
        <time>2021-11-16T02:33:11Z</time>
      </trkpt>
      <trkpt lat="44.1131" lon="6.57933">
        <ele>1098</ele>
        <time>2021-11-16T02:33:33Z</time>
      </trkpt>
      <trkpt lat="44.11304" lon="6.57926">
        <ele>1098</ele>
        <time>2021-11-16T02:33:35Z</time>
      </trkpt>
      <trkpt lat="44.11288" lon="6.57926">
        <ele>1098</ele>
        <time>2021-11-16T02:33:39Z</time>
      </trkpt>
      <trkpt lat="44.11262" lon="6.5792">
        <ele>1099</ele>
        <time>2021-11-16T02:33:45Z</time>
      </trkpt>
      <trkpt lat="44.11201" lon="6.57918">
        <ele>1098</ele>
        <time>2021-11-16T02:33:59Z</time>
      </trkpt>
      <trkpt lat="44.11144" lon="6.57913">
        <ele>1097</ele>
        <time>2021-11-16T02:34:13Z</time>
      </trkpt>
      <trkpt lat="44.11105" lon="6.57903">
        <ele>1096</ele>
        <time>2021-11-16T02:34:22Z</time>
      </trkpt>
      <trkpt lat="44.11067" lon="6.57884">
        <ele>1096</ele>
        <time>2021-11-16T02:34:31Z</time>
      </trkpt>
      <trkpt lat="44.11027" lon="6.57855">
        <ele>1097</ele>
        <time>2021-11-16T02:34:42Z</time>
      </trkpt>
      <trkpt lat="44.10983" lon="6.5781">
        <ele>1098</ele>
        <time>2021-11-16T02:34:55Z</time>
      </trkpt>
      <trkpt lat="44.10939" lon="6.57742">
        <ele>1096</ele>
        <time>2021-11-16T02:35:10Z</time>
      </trkpt>
      <trkpt lat="44.10848" lon="6.57587">
        <ele>1094</ele>
        <time>2021-11-16T02:35:44Z</time>
      </trkpt>
      <trkpt lat="44.10845" lon="6.57581">
        <ele>1095</ele>
        <time>2021-11-16T02:35:45Z</time>
      </trkpt>
      <trkpt lat="44.10854" lon="6.57576">
        <ele>1097</ele>
        <time>2021-11-16T02:35:47Z</time>
      </trkpt>
      <trkpt lat="44.10845" lon="6.57567">
        <ele>1097</ele>
        <time>2021-11-16T02:35:50Z</time>
      </trkpt>
      <trkpt lat="44.10815" lon="6.57524">
        <ele>1098</ele>
        <time>2021-11-16T02:36:00Z</time>
      </trkpt>
      <trkpt lat="44.10744" lon="6.57431">
        <ele>1095</ele>
        <time>2021-11-16T02:36:22Z</time>
      </trkpt>
      <trkpt lat="44.10637" lon="6.57309">
        <ele>1096</ele>
        <time>2021-11-16T02:36:55Z</time>
      </trkpt>
      <trkpt lat="44.10589" lon="6.57263">
        <ele>1094</ele>
        <time>2021-11-16T02:37:08Z</time>
      </trkpt>
      <trkpt lat="44.10549" lon="6.572">
        <ele>1099</ele>
        <time>2021-11-16T02:37:22Z</time>
      </trkpt>
      <trkpt lat="44.10516" lon="6.57154">
        <ele>1100</ele>
        <time>2021-11-16T02:37:33Z</time>
      </trkpt>
      <trkpt lat="44.10471" lon="6.57105">
        <ele>1102</ele>
        <time>2021-11-16T02:37:47Z</time>
      </trkpt>
      <trkpt lat="44.10426" lon="6.57046">
        <ele>1102</ele>
        <time>2021-11-16T02:38:01Z</time>
      </trkpt>
      <trkpt lat="44.10387" lon="6.56985">
        <ele>1103</ele>
        <time>2021-11-16T02:38:15Z</time>
      </trkpt>
    </trkseg>
  </trk>
</gpx>